Startpagina
METAR-TAF:

METAR-TAF

Vliegvelden :

Mangalore, India

breedte: 12-55N, lengte: 074-53E, hoogte: 102 m

Actueel weer

Dit bericht is 19 minuten geleden gemaakt, om 21:00 UTC
Wind 5 kt uit het oostzuidoosten
Temperatuur 25°C
Vochtigheid 94%
Druk 1007 hPa
Zicht: 4000 m
Weinig wolken op 400 ft
Verspreide wolken op 1200 ft
nevel

METAR: VOML 022100Z 11005KT 4000 BR FEW004 SCT012 25/24 Q1007 NOSIG

Tijdstip: 02:49 (21:19 UTC)

Verwachting

Dit bericht is 1 uur en het 19 minuten geleden gemaakt, om 20:00 UTC
Verwachting geldig van 02 om 21 UTC tot 03 om 06 UTC
Wind 5 kt uit het zuiden
Zicht: 5000 m
Verspreide wolken op 1000 ft
Verspreide wolken op 8000 ft
regen, nevel
Tijdelijke
van 03 om 00 UTC tot 03 om 06 UTC
Zicht: 4000 m
Verspreide wolken op 800 ft
Verspreide wolken op 1200 ft
Gebroken wolken op 8000 ft
motregen, nevel

TAF: VOML 022000Z 0221/0306 18005KT 5000 RA BR SCT010 SCT080 TEMPO 0300/0306 4000 DZ BR SCT008 SCT012 BKN080

Waarnemingen en weersverwachtingen van meer dan 4000 vliegvelden (METAR en TAF).

De beschikbare stations zijn de gele en rode punten op de kaart.

Ga met uw muis naar het station om de naam te zien.

Klik dan om waarnemingen en weersverwachtingen te zien.

kaart wijzigen: klik op de groene knoppen met een zwart kruis om in te zoomen, op de groene knop met een streepje om uit te zoomen of op de groene pijlen voor aangrenzende kaarten.


METAR-TAF: